createdAt,value
2018-07-11T00:02:08.345Z,20.70
2018-07-11T00:04:37.760Z,20.70
2018-07-11T00:07:07.764Z,20.70
2018-07-11T00:09:36.575Z,20.60
2018-07-11T00:12:05.497Z,20.60
2018-07-11T00:14:34.264Z,20.70
2018-07-11T00:17:06.081Z,20.80
2018-07-11T00:19:35.868Z,20.80
2018-07-11T00:22:05.972Z,20.90
2018-07-11T00:24:35.537Z,20.90
2018-07-11T00:27:04.867Z,21.00
2018-07-11T00:29:33.861Z,21.00
2018-07-11T00:32:03.326Z,21.10
2018-07-11T00:34:32.222Z,21.10
2018-07-11T00:37:01.155Z,21.20
2018-07-11T00:39:37.544Z,21.20
2018-07-11T00:44:34.989Z,21.20
2018-07-11T00:47:04.378Z,21.30
2018-07-11T00:49:33.227Z,21.30
2018-07-11T00:52:02.069Z,21.30
2018-07-11T00:54:30.981Z,21.20
2018-07-11T00:57:00.348Z,21.30
2018-07-11T00:59:30.995Z,21.30
2018-07-11T01:02:04.624Z,21.30
2018-07-11T01:04:33.555Z,21.30
2018-07-11T01:07:04.133Z,21.30
2018-07-11T01:09:36.330Z,21.30
2018-07-11T01:14:33.657Z,21.30
2018-07-11T01:17:02.625Z,21.30
2018-07-11T01:19:31.610Z,21.40
2018-07-11T01:22:04.428Z,21.40
2018-07-11T01:24:33.420Z,21.40
2018-07-11T01:27:02.289Z,21.40
2018-07-11T01:29:31.053Z,21.40
2018-07-11T01:32:00.417Z,21.30
2018-07-11T01:34:29.601Z,21.30
2018-07-11T01:36:58.423Z,21.40
2018-07-11T01:39:27.332Z,21.30
2018-07-11T01:41:56.092Z,21.30
2018-07-11T01:44:24.984Z,21.10
2018-07-11T01:46:53.796Z,21.10
2018-07-11T01:49:23.229Z,21.00
2018-07-11T01:52:03.028Z,20.90
2018-07-11T01:54:31.958Z,20.80
2018-07-11T01:57:00.908Z,20.70
2018-07-11T01:59:35.608Z,20.60
2018-07-11T02:02:04.979Z,20.50
2018-07-11T02:04:37.799Z,20.40
2018-07-11T02:07:07.130Z,20.50
2018-07-11T02:12:04.898Z,20.40
2018-07-11T02:14:34.468Z,20.20
2018-07-11T02:17:03.395Z,20.10
2018-07-11T02:19:32.417Z,20.10
2018-07-11T02:22:01.569Z,20.20
2018-07-11T02:24:31.273Z,20.00
2018-07-11T02:27:00.867Z,20.00
2018-07-11T02:29:34.187Z,20.00
2018-07-11T02:32:03.636Z,19.80
2018-07-11T02:34:35.078Z,19.60
2018-07-11T02:39:33.296Z,19.80
2018-07-11T02:42:02.503Z,19.90
2018-07-11T02:44:31.529Z,20.10
2018-07-11T02:47:05.584Z,20.20
2018-07-11T02:49:34.777Z,20.20
2018-07-11T02:52:03.840Z,20.20
2018-07-11T02:54:36.797Z,20.10
2018-07-11T02:57:05.777Z,20.00
2018-07-11T02:59:35.188Z,20.10
2018-07-11T03:02:04.196Z,20.20
2018-07-11T03:04:33.726Z,20.20
2018-07-11T03:07:02.709Z,20.20
2018-07-11T03:09:31.524Z,20.20
2018-07-11T03:12:00.547Z,20.20
2018-07-11T03:16:57.902Z,20.40
2018-07-11T03:19:28.090Z,20.50
2018-07-11T03:21:56.985Z,20.60
2018-07-11T03:24:25.763Z,20.40
2018-07-11T03:26:54.969Z,20.30
2018-07-11T03:29:23.847Z,20.30
2018-07-11T03:31:52.585Z,20.30
2018-07-11T03:34:21.476Z,20.40
2018-07-11T03:36:50.312Z,20.40
2018-07-11T03:39:18.988Z,20.40
2018-07-11T03:41:47.960Z,20.50
2018-07-11T03:44:16.705Z,20.60
2018-07-11T03:46:45.966Z,20.50
2018-07-11T03:49:14.767Z,20.40
2018-07-11T03:51:44.129Z,20.30
2018-07-11T03:54:12.963Z,20.30
2018-07-11T03:56:41.853Z,20.20
2018-07-11T03:59:10.608Z,20.10
2018-07-11T04:01:39.462Z,20.20
2018-07-11T04:04:08.221Z,20.20
2018-07-11T04:06:37.037Z,20.20
2018-07-11T04:09:06.521Z,20.10
2018-07-11T04:11:39.767Z,20.20
2018-07-11T04:14:08.872Z,20.10
2018-07-11T04:16:37.692Z,20.10
2018-07-11T04:19:06.618Z,20.20
2018-07-11T04:21:35.363Z,20.10
2018-07-11T04:24:05.147Z,20.10
2018-07-11T04:26:33.986Z,20.00
2018-07-11T04:29:02.838Z,20.00
2018-07-11T04:31:32.215Z,20.10
2018-07-11T04:34:01.055Z,20.20
2018-07-11T04:36:29.890Z,20.20
2018-07-11T04:38:58.805Z,20.30
2018-07-11T04:41:27.768Z,20.40
2018-07-11T04:43:57.886Z,20.50
2018-07-11T04:46:26.870Z,20.60
2018-07-11T04:48:55.756Z,20.70
2018-07-11T04:51:24.580Z,20.70
2018-07-11T04:53:54.747Z,20.80
2018-07-11T04:56:23.798Z,20.80
2018-07-11T04:58:58.898Z,20.80
2018-07-11T05:01:28.917Z,20.80
2018-07-11T05:03:59.902Z,20.80
2018-07-11T05:06:28.670Z,20.80
2018-07-11T05:08:58.140Z,20.90
2018-07-11T05:11:27.302Z,20.90
2018-07-11T05:16:24.532Z,21.10
2018-07-11T05:18:54.281Z,21.00
2018-07-11T05:21:23.072Z,20.90
2018-07-11T05:23:51.804Z,20.90
2018-07-11T05:26:21.278Z,20.90
2018-07-11T05:28:50.060Z,20.90
2018-07-11T05:31:18.837Z,20.90
2018-07-11T05:36:16.079Z,20.80
2018-07-11T05:38:44.809Z,20.90
2018-07-11T05:41:13.579Z,20.90
2018-07-11T05:43:42.288Z,20.90
2018-07-11T05:46:10.969Z,20.80
2018-07-11T05:51:08.213Z,20.80
2018-07-11T05:53:36.896Z,20.60
2018-07-11T05:56:05.685Z,20.50
2018-07-11T05:58:34.813Z,20.50
2018-07-11T06:01:03.495Z,20.60
2018-07-11T06:03:32.358Z,20.50
2018-07-11T06:06:01.090Z,20.50
2018-07-11T06:08:29.865Z,20.50
2018-07-11T06:10:59.325Z,20.50
2018-07-11T06:13:32.844Z,20.40
2018-07-11T06:16:01.613Z,20.40
2018-07-11T06:18:30.309Z,20.40
2018-07-11T06:20:59.224Z,20.40
2018-07-11T06:23:28.054Z,20.30
2018-07-11T06:25:56.787Z,20.20
2018-07-11T06:28:26.078Z,20.10
2018-07-11T06:30:54.827Z,20.00
2018-07-11T06:33:23.634Z,19.90
2018-07-11T06:35:53.771Z,19.90
2018-07-11T06:38:22.556Z,19.90
2018-07-11T06:40:51.493Z,20.00
2018-07-11T06:43:20.237Z,20.00
2018-07-11T06:45:49.196Z,20.10
2018-07-11T06:48:18.265Z,20.10
2018-07-11T06:50:46.977Z,20.20
2018-07-11T06:53:15.713Z,20.20
2018-07-11T06:55:44.486Z,20.30
2018-07-11T06:58:13.239Z,20.50
2018-07-11T07:00:42.014Z,20.60
2018-07-11T07:05:39.600Z,20.80
2018-07-11T07:08:08.331Z,20.90
2018-07-11T07:10:37.131Z,20.80
2018-07-11T07:13:05.957Z,20.90
2018-07-11T07:15:34.725Z,21.00
2018-07-11T07:18:04.653Z,21.00
2018-07-11T07:20:33.916Z,21.00
2018-07-11T07:23:02.678Z,21.00
2018-07-11T07:25:31.400Z,20.90
2018-07-11T07:28:00.117Z,20.90
2018-07-11T07:32:57.499Z,21.20
2018-07-11T07:35:26.283Z,21.20
2018-07-11T07:37:59.655Z,21.40
2018-07-11T07:40:29.327Z,21.50
2018-07-11T07:42:58.713Z,21.40
2018-07-11T07:45:31.597Z,21.40
2018-07-11T07:48:01.912Z,21.50
2018-07-11T07:50:31.669Z,21.40
2018-07-11T07:53:00.527Z,21.50
2018-07-11T07:55:29.998Z,21.60
2018-07-11T07:57:58.797Z,21.40
2018-07-11T08:00:28.882Z,21.10
2018-07-11T08:02:58.278Z,21.10
2018-07-11T08:05:31.134Z,21.10
2018-07-11T08:07:59.931Z,21.10
2018-07-11T08:10:28.711Z,21.00
2018-07-11T08:12:57.503Z,21.20
2018-07-11T08:15:26.927Z,21.30
2018-07-11T08:17:55.929Z,21.40
2018-07-11T08:20:25.267Z,21.50
2018-07-11T08:23:15.037Z,21.40
2018-07-11T08:25:56.352Z,21.50
2018-07-11T08:28:36.334Z,21.60
2018-07-11T08:31:45.670Z,21.70
2018-07-11T08:35:31.213Z,21.70
2018-07-11T08:38:25.159Z,21.80
2018-07-11T08:41:34.913Z,21.90
2018-07-11T08:46:19.065Z,22.00
2018-07-11T08:51:03.716Z,21.90
2018-07-11T08:53:43.577Z,22.00
2018-07-11T08:58:27.146Z,21.90
2018-07-11T09:03:10.246Z,21.90
2018-07-11T09:05:54.995Z,22.10
2018-07-11T09:15:51.852Z,21.90
2018-07-11T09:18:30.678Z,22.00
2018-07-11T09:22:12.823Z,22.20
2018-07-11T09:24:46.774Z,22.30
2018-07-11T09:27:15.565Z,22.20
2018-07-11T09:29:45.089Z,22.10
2018-07-11T09:32:14.450Z,22.20
2018-07-11T09:34:43.845Z,22.30
2018-07-11T09:39:42.760Z,22.20
2018-07-11T09:42:12.141Z,22.20
2018-07-11T09:44:41.888Z,22.20
2018-07-11T09:47:15.866Z,22.30
2018-07-11T09:49:44.746Z,22.30
2018-07-11T09:52:13.570Z,22.30
2018-07-11T09:54:42.552Z,22.20
2018-07-11T09:57:11.396Z,22.30
2018-07-11T09:59:40.258Z,22.40
2018-07-11T10:02:09.045Z,22.60
2018-07-11T10:04:37.985Z,22.50
2018-07-11T10:09:35.344Z,22.60
2018-07-11T10:12:04.740Z,22.50
2018-07-11T10:14:33.545Z,22.70
2018-07-11T10:17:02.920Z,22.60
2018-07-11T10:19:31.768Z,22.40
2018-07-11T10:22:00.577Z,22.50
2018-07-11T10:26:58.672Z,22.40
2018-07-11T10:29:31.892Z,22.40
2018-07-11T10:32:00.680Z,22.60
2018-07-11T10:34:29.513Z,22.60
2018-07-11T10:36:58.497Z,22.60
2018-07-11T10:39:27.666Z,22.80
2018-07-11T10:41:56.602Z,22.90
2018-07-11T10:44:26.417Z,23.10
2018-07-11T10:47:00.451Z,23.30
2018-07-11T10:49:31.360Z,23.30
2018-07-11T10:54:29.354Z,23.20
2018-07-11T10:59:26.732Z,23.50
2018-07-11T11:04:24.193Z,23.70
2018-07-11T11:06:53.177Z,23.50
2018-07-11T11:09:22.545Z,23.60
2018-07-11T11:11:52.684Z,23.50
2018-07-11T11:14:22.130Z,23.50
2018-07-11T11:16:51.077Z,23.40
2018-07-11T11:19:19.923Z,23.30
2018-07-11T11:21:48.884Z,23.50
2018-07-11T11:24:17.982Z,23.70
2018-07-11T11:26:46.754Z,23.80
2018-07-11T11:29:15.494Z,23.90
2018-07-11T11:31:44.301Z,23.90
2018-07-11T11:34:13.063Z,23.90
2018-07-11T11:36:41.945Z,23.90
2018-07-11T11:39:10.869Z,24.10
2018-07-11T11:41:39.818Z,24.20
2018-07-11T11:44:09.644Z,24.30
2018-07-11T11:46:38.873Z,24.30
2018-07-11T11:49:08.915Z,24.10
2018-07-11T11:51:37.764Z,24.00
2018-07-11T11:54:06.632Z,24.00
2018-07-11T11:56:36.213Z,24.10
2018-07-11T11:59:06.324Z,24.00
2018-07-11T12:01:35.644Z,24.10
2018-07-11T12:06:33.746Z,24.40
2018-07-11T12:09:02.599Z,24.30
2018-07-11T12:11:31.467Z,24.40
2018-07-11T12:14:00.310Z,24.50
2018-07-11T12:16:29.262Z,24.50
2018-07-11T12:18:58.380Z,24.50
2018-07-11T12:21:28.946Z,24.40
2018-07-11T12:23:58.653Z,24.40
2018-07-11T12:26:29.336Z,24.40
2018-07-11T12:28:58.205Z,24.20
2018-07-11T12:31:27.542Z,24.30
2018-07-11T12:33:56.377Z,24.30
2018-07-11T12:36:25.348Z,24.20
2018-07-11T12:38:55.732Z,24.10
2018-07-11T12:41:24.795Z,24.10
2018-07-11T12:46:23.040Z,24.30
2018-07-11T12:48:57.141Z,24.30
2018-07-11T12:51:27.905Z,24.30
2018-07-11T12:53:56.773Z,24.40
2018-07-11T12:56:28.280Z,24.20
2018-07-11T12:58:57.941Z,24.20
2018-07-11T13:01:32.997Z,24.10
2018-07-11T13:04:02.530Z,24.20
2018-07-11T13:06:31.497Z,23.90
2018-07-11T13:09:00.361Z,24.10
2018-07-11T13:11:29.757Z,24.00
2018-07-11T13:13:58.782Z,24.10
2018-07-11T13:16:32.010Z,24.10
2018-07-11T13:19:00.802Z,24.10
2018-07-11T13:21:30.141Z,24.00
2018-07-11T13:23:59.041Z,24.00
2018-07-11T13:26:29.191Z,24.10
2018-07-11T13:28:59.085Z,24.00
2018-07-11T13:31:29.556Z,23.80
2018-07-11T13:33:58.485Z,23.60
2018-07-11T13:36:27.419Z,23.50
2018-07-11T13:38:56.180Z,23.40
2018-07-11T13:41:25.092Z,23.40
2018-07-11T13:43:53.877Z,23.50
2018-07-11T13:46:23.387Z,23.60
2018-07-11T13:48:52.273Z,23.70
2018-07-11T13:51:21.969Z,23.60
2018-07-11T13:53:51.119Z,23.80
2018-07-11T13:56:20.168Z,23.90
2018-07-11T13:58:49.689Z,24.10
2018-07-11T14:01:19.099Z,24.10
2018-07-11T14:03:48.839Z,23.90
2018-07-11T14:06:22.090Z,23.70
2018-07-11T14:08:51.824Z,23.70
2018-07-11T14:11:20.672Z,23.50
2018-07-11T14:13:49.469Z,23.40
2018-07-11T14:16:18.320Z,23.20
2018-07-11T14:18:47.290Z,23.10
2018-07-11T14:21:16.097Z,23.10
2018-07-11T14:23:44.984Z,22.90
2018-07-11T14:26:15.250Z,22.70
2018-07-11T14:28:50.272Z,22.60
2018-07-11T14:31:34.494Z,22.60
2018-07-11T14:36:36.494Z,22.50
2018-07-11T14:39:07.016Z,22.30
2018-07-11T14:41:35.909Z,22.10
2018-07-11T14:44:04.718Z,22.10
2018-07-11T14:46:35.103Z,22.00
2018-07-11T14:49:04.363Z,22.00
2018-07-11T14:51:37.999Z,21.90
2018-07-11T14:54:07.282Z,21.80
2018-07-11T14:56:36.854Z,21.70
2018-07-11T14:59:06.185Z,21.70
2018-07-11T15:01:34.939Z,21.60
2018-07-11T15:04:03.859Z,21.30
2018-07-11T15:06:32.700Z,21.30
2018-07-11T15:09:01.825Z,21.20
2018-07-11T15:11:30.615Z,21.10
2018-07-11T15:14:00.761Z,21.10
2018-07-11T15:16:29.571Z,21.00
2018-07-11T15:18:58.521Z,20.90
2018-07-11T15:21:29.109Z,20.90
2018-07-11T15:23:57.973Z,20.90
2018-07-11T15:26:31.542Z,20.90
2018-07-11T15:29:00.271Z,20.90
2018-07-11T15:31:30.346Z,20.80
2018-07-11T15:33:59.062Z,20.70
2018-07-11T15:36:29.121Z,20.70
2018-07-11T15:38:58.155Z,20.60
2018-07-11T15:41:27.602Z,20.60
2018-07-11T15:43:56.610Z,20.60
2018-07-11T15:46:26.316Z,20.60
2018-07-11T15:48:55.094Z,20.60
2018-07-11T15:51:23.971Z,20.70
2018-07-11T15:53:52.832Z,20.70
2018-07-11T15:56:22.262Z,20.70
2018-07-11T15:58:57.594Z,20.80
2018-07-11T16:01:33.566Z,20.90
2018-07-11T16:04:03.580Z,20.90
2018-07-11T16:06:33.322Z,21.00
2018-07-11T16:09:06.156Z,21.20
2018-07-11T16:11:38.578Z,21.20
2018-07-11T16:14:08.949Z,21.30
2018-07-11T16:16:37.853Z,21.30
2018-07-11T16:19:07.557Z,21.40
2018-07-11T16:21:37.569Z,21.30
2018-07-11T16:24:06.470Z,21.20
2018-07-11T16:26:36.709Z,21.20
2018-07-11T16:29:05.574Z,21.20
2018-07-11T16:31:34.368Z,21.10
2018-07-11T16:34:03.221Z,21.00
2018-07-11T16:36:32.139Z,20.90
2018-07-11T16:39:00.937Z,20.80
2018-07-11T16:41:30.390Z,20.80
2018-07-11T16:43:59.291Z,20.90
2018-07-11T16:48:56.796Z,21.00
2018-07-11T16:51:25.733Z,21.20
2018-07-11T16:53:56.692Z,21.30
2018-07-11T16:56:26.209Z,21.40
2018-07-11T17:01:33.482Z,21.40
2018-07-11T17:04:05.601Z,21.40
2018-07-11T17:06:35.884Z,21.50
2018-07-11T17:09:05.588Z,21.60
2018-07-11T17:11:34.577Z,21.70
2018-07-11T17:14:05.234Z,22.00
2018-07-11T17:16:36.717Z,22.20
2018-07-11T17:19:10.215Z,22.20
2018-07-11T17:21:43.916Z,22.20
2018-07-11T17:24:15.895Z,22.20
2018-07-11T17:26:46.428Z,22.20
2018-07-11T17:29:28.033Z,22.10
2018-07-11T17:32:04.286Z,22.10
2018-07-11T17:34:34.213Z,21.90
2018-07-11T17:37:05.595Z,21.80
2018-07-11T17:39:58.107Z,21.80
2018-07-11T17:42:28.598Z,21.80
2018-07-11T17:45:06.759Z,21.90
2018-07-11T17:47:43.977Z,22.00
2018-07-11T17:50:13.082Z,22.00
2018-07-11T17:52:53.955Z,22.00
2018-07-11T17:58:05.055Z,22.10
2018-07-11T18:00:44.737Z,22.20
2018-07-11T18:10:07.649Z,22.30
2018-07-11T18:12:54.474Z,22.30
2018-07-11T18:15:31.449Z,21.80
2018-07-11T18:18:39.875Z,21.80
2018-07-11T18:21:23.870Z,21.80
2018-07-11T18:24:00.395Z,21.90
2018-07-11T18:27:11.759Z,21.90
2018-07-11T18:30:23.898Z,21.80
2018-07-11T18:34:03.620Z,21.80
2018-07-11T18:36:45.674Z,21.60
2018-07-11T18:39:25.768Z,21.50
2018-07-11T18:43:32.803Z,21.40
2018-07-11T18:46:43.185Z,21.20
2018-07-11T18:49:24.477Z,21.20
2018-07-11T18:52:31.443Z,21.30
2018-07-11T18:55:12.824Z,21.30
2018-07-11T18:57:55.595Z,21.40
2018-07-11T19:00:59.929Z,21.40
2018-07-11T19:03:35.008Z,21.40
2018-07-11T19:08:17.144Z,21.50
2018-07-11T19:10:54.169Z,21.50
2018-07-11T19:13:30.481Z,21.60
2018-07-11T19:16:05.570Z,21.60
2018-07-11T19:18:46.735Z,21.60
2018-07-11T19:21:19.088Z,21.60
2018-07-11T19:23:56.997Z,21.60
2018-07-11T19:26:46.535Z,21.60
2018-07-11T19:30:25.789Z,21.50
2018-07-11T19:35:09.272Z,21.50
2018-07-11T19:38:07.875Z,21.40
2018-07-11T19:41:26.542Z,21.40
2018-07-11T19:46:12.016Z,21.40
2018-07-11T19:49:06.918Z,21.30
2018-07-11T19:51:44.341Z,21.30
2018-07-11T19:54:24.605Z,21.20
2018-07-11T19:56:54.729Z,21.10
2018-07-11T19:59:23.843Z,20.90
2018-07-11T20:04:21.313Z,20.90
2018-07-11T20:09:18.801Z,20.90
2018-07-11T20:11:48.233Z,20.70
2018-07-11T20:17:07.844Z,20.80
2018-07-11T20:19:36.715Z,20.80
2018-07-11T20:22:05.567Z,20.80
2018-07-11T20:27:02.748Z,20.60
2018-07-11T20:32:00.061Z,20.30
2018-07-11T20:34:28.869Z,20.10
2018-07-11T20:36:57.919Z,19.90
2018-07-11T20:39:27.811Z,19.80
2018-07-11T20:41:58.417Z,19.80
2018-07-11T20:44:27.444Z,19.90
2018-07-11T20:46:56.801Z,19.80
2018-07-11T20:49:30.786Z,19.70
2018-07-11T20:51:59.688Z,19.60
2018-07-11T20:54:30.168Z,19.50
2018-07-11T20:56:59.723Z,19.60
2018-07-11T20:59:39.559Z,19.60
2018-07-11T21:02:19.519Z,19.50
2018-07-11T21:07:07.228Z,19.50
2018-07-11T21:11:47.657Z,19.60
2018-07-11T21:14:29.939Z,19.60
2018-07-11T21:17:17.290Z,19.60
2018-07-11T21:19:46.033Z,19.50
2018-07-11T21:22:14.905Z,19.60
2018-07-11T21:24:43.698Z,19.60
2018-07-11T21:27:12.486Z,19.70
2018-07-11T21:29:41.266Z,19.70
2018-07-11T21:32:10.042Z,19.70
2018-07-11T21:34:39.417Z,19.60
2018-07-11T21:37:08.138Z,19.70
2018-07-11T21:39:42.425Z,19.80
2018-07-11T21:42:11.176Z,19.80
2018-07-11T21:47:08.513Z,19.90
2018-07-11T21:49:37.315Z,20.00
2018-07-11T21:52:07.102Z,19.90
2018-07-11T21:54:35.877Z,19.80
2018-07-11T21:57:08.864Z,19.70
2018-07-11T21:59:37.881Z,19.70
2018-07-11T22:02:11.093Z,19.60
2018-07-11T22:04:40.413Z,19.60
2018-07-11T22:07:09.567Z,19.60
2018-07-11T22:09:38.437Z,19.30
2018-07-11T22:12:08.962Z,19.20
2018-07-11T22:14:37.805Z,19.20
2018-07-11T22:17:17.478Z,19.20
2018-07-11T22:19:44.934Z,19.20
2018-07-11T22:22:13.426Z,19.40
2018-07-11T22:24:40.881Z,19.40
2018-07-11T22:27:08.357Z,19.40
2018-07-11T22:29:36.096Z,19.40
2018-07-11T22:32:03.720Z,19.40
2018-07-11T22:34:31.178Z,19.40
2018-07-11T22:36:58.669Z,19.50
2018-07-11T22:39:26.421Z,19.50
2018-07-11T22:41:54.088Z,19.50
2018-07-11T22:44:21.534Z,19.50
2018-07-11T22:46:49.884Z,19.60
2018-07-11T22:49:17.798Z,19.60
2018-07-11T22:51:45.280Z,19.60
2018-07-11T22:54:12.914Z,19.60
2018-07-11T22:56:40.679Z,19.70
2018-07-11T22:59:08.100Z,19.80
2018-07-11T23:01:35.578Z,20.00
2018-07-11T23:04:03.254Z,20.00
2018-07-11T23:06:31.389Z,20.10
2018-07-11T23:08:59.277Z,20.10
2018-07-11T23:11:26.743Z,20.10
2018-07-11T23:13:54.373Z,20.10
2018-07-11T23:16:21.831Z,20.20
2018-07-11T23:18:49.286Z,20.20
2018-07-11T23:21:16.768Z,20.10
2018-07-11T23:23:44.227Z,20.00
2018-07-11T23:26:11.641Z,20.00
2018-07-11T23:28:39.164Z,20.00
2018-07-11T23:31:06.642Z,20.10
2018-07-11T23:33:34.089Z,20.20
2018-07-11T23:36:01.830Z,20.20
2018-07-11T23:38:30.562Z,20.20
2018-07-11T23:40:58.004Z,20.10
2018-07-11T23:43:25.747Z,20.10
2018-07-11T23:45:53.833Z,20.10
2018-07-11T23:48:21.271Z,20.10
2018-07-11T23:50:48.928Z,20.00
2018-07-11T23:53:16.345Z,19.90
2018-07-11T23:55:43.821Z,19.80
2018-07-11T23:58:11.340Z,19.60
